Time;durP1;ratioP1;P1;durP2;ratioP2;P2;SDS_P1;SDS_P2;PMS_P1;PMS_P2;Temp;Humidity;BMP_temperature;BMP_pressure;BME280_temperature;BME280_humidity;BME280_pressure;Samples;Min_cycle;Max_cycle;Signal;HPM_P1;HPM_P2
2023/12/10 00:01:20;;;;;;;43.88;11.98;;;0.60;99.90;;;;;;4861437;29;20055;-76
2023/12/10 00:03:49;;;;;;;52.33;11.93;;;0.60;99.90;;;;;;4863240;29;20060;-76
2023/12/10 00:06:18;;;;;;;40.00;11.15;;;0.60;99.90;;;;;;4849716;29;20139;-76
2023/12/10 00:08:47;;;;;;;52.67;12.82;;;0.60;99.90;;;;;;4847243;29;20084;-76
2023/12/10 00:11:16;;;;;;;56.42;12.88;;;0.70;99.90;;;;;;4848911;29;20052;-76
2023/12/10 00:13:45;;;;;;;39.80;11.38;;;0.70;99.90;;;;;;4864626;29;20056;-76
2023/12/10 00:16:14;;;;;;;49.08;11.60;;;0.70;99.90;;;;;;4864525;29;20072;-76
2023/12/10 00:18:43;;;;;;;29.33;9.05;;;0.70;99.90;;;;;;4869503;29;20052;-76
2023/12/10 00:21:15;;;;;;;47.75;13.85;;;0.70;99.90;;;;;;4851775;29;20059;-77
2023/12/10 00:23:43;;;;;;;42.50;12.13;;;0.60;99.90;;;;;;4858120;29;20135;-76
2023/12/10 00:26:12;;;;;;;43.35;11.98;;;0.60;99.90;;;;;;4869242;29;22564;-77
2023/12/10 00:28:40;;;;;;;51.35;13.50;;;0.60;99.90;;;;;;4869089;29;22624;-76
2023/12/10 00:31:10;;;;;;;53.42;12.95;;;0.60;99.90;;;;;;4857894;29;20828;-76
2023/12/10 00:33:39;;;;;;;37.67;10.35;;;0.60;99.90;;;;;;4876538;29;20084;-77
2023/12/10 00:36:08;;;;;;;48.50;12.75;;;0.60;99.90;;;;;;4855275;29;20136;-77
2023/12/10 00:38:39;;;;;;;39.53;10.55;;;0.60;99.90;;;;;;4868339;29;20057;-76
2023/12/10 00:41:10;;;;;;;41.05;10.45;;;0.60;99.90;;;;;;4854203;29;20182;-77
2023/12/10 00:43:40;;;;;;;34.10;8.32;;;0.60;99.90;;;;;;4868444;29;20060;-76
2023/12/10 00:46:09;;;;;;;34.78;9.57;;;0.60;99.90;;;;;;4866943;29;20267;-76
2023/12/10 00:48:40;;;;;;;50.72;12.25;;;0.60;99.90;;;;;;4869600;29;20064;-77
2023/12/10 00:51:18;;;;;;;42.60;11.32;;;0.60;99.90;;;;;;4867718;29;20053;-77
2023/12/10 00:53:49;;;;;;;43.70;10.90;;;0.60;99.90;;;;;;4854876;29;20074;-76
2023/12/10 00:56:18;;;;;;;36.65;10.27;;;0.70;99.90;;;;;;4896699;29;20088;-76
2023/12/10 00:58:47;;;;;;;50.83;11.85;;;0.70;99.90;;;;;;4858574;29;20057;-76
2023/12/10 01:01:17;;;;;;;35.92;10.57;;;0.70;99.90;;;;;;4867611;29;20053;-76
2023/12/10 01:03:47;;;;;;;35.75;10.32;;;0.70;99.90;;;;;;4870669;29;20504;-76
2023/12/10 01:06:17;;;;;;;34.47;10.50;;;0.60;99.90;;;;;;4852203;29;20068;-76
2023/12/10 01:08:47;;;;;;;39.95;12.07;;;0.70;99.90;;;;;;4856975;29;20072;-76
2023/12/10 01:11:17;;;;;;;35.95;10.27;;;0.70;99.90;;;;;;4869805;29;20048;-76
2023/12/10 01:13:47;;;;;;;29.48;8.93;;;0.70;99.90;;;;;;4880154;29;20556;-76
2023/12/10 01:16:16;;;;;;;34.65;10.50;;;0.80;99.90;;;;;;4879069;29;20053;-76
2023/12/10 01:18:47;;;;;;;38.88;11.43;;;0.70;99.90;;;;;;4868869;29;20066;-77
2023/12/10 01:21:17;;;;;;;38.08;9.05;;;0.70;99.90;;;;;;4850009;29;20149;-77
2023/12/10 01:23:49;;;;;;;35.60;10.98;;;0.70;99.90;;;;;;4877634;29;20134;-76
2023/12/10 01:26:18;;;;;;;34.03;10.07;;;0.70;99.90;;;;;;4870548;29;20056;-78
2023/12/10 01:28:46;;;;;;;31.75;10.63;;;0.70;99.90;;;;;;4864573;29;20036;-79
2023/12/10 01:31:15;;;;;;;29.52;9.50;;;0.70;99.90;;;;;;4883641;29;20052;-78
2023/12/10 01:33:43;;;;;;;35.10;9.95;;;0.60;99.90;;;;;;4876528;29;20072;-78
2023/12/10 01:36:22;;;;;;;39.97;10.48;;;0.70;99.90;;;;;;4884528;29;20049;-79
2023/12/10 01:38:53;;;;;;;29.77;8.50;;;0.70;99.90;;;;;;4875844;29;20111;-79
2023/12/10 01:41:21;;;;;;;20.40;7.30;;;0.70;99.90;;;;;;4858475;29;20057;-77
2023/12/10 01:43:50;;;;;;;35.00;11.38;;;0.70;99.90;;;;;;4866779;29;20072;-78
2023/12/10 01:46:18;;;;;;;37.05;9.25;;;0.70;99.90;;;;;;4855180;29;20395;-78
2023/12/10 01:48:51;;;;;;;36.88;10.20;;;0.80;99.90;;;;;;4879783;29;20123;-79
2023/12/10 01:51:20;;;;;;;27.55;9.02;;;0.60;99.90;;;;;;4856881;29;20139;-77
2023/12/10 01:53:49;;;;;;;38.42;11.68;;;0.70;99.90;;;;;;4870364;29;20114;-77
2023/12/10 01:56:20;;;;;;;33.22;10.82;;;0.70;99.90;;;;;;4857668;29;20147;-78
2023/12/10 01:58:49;;;;;;;32.05;9.90;;;0.70;99.90;;;;;;4872314;29;20048;-78
2023/12/10 02:01:18;;;;;;;33.20;9.82;;;0.70;99.90;;;;;;4868674;29;20844;-77
2023/12/10 02:03:47;;;;;;;35.20;10.65;;;0.70;99.90;;;;;;4878243;29;20408;-77
2023/12/10 02:06:16;;;;;;;44.10;11.55;;;0.70;99.90;;;;;;4871395;29;20120;-78
2023/12/10 02:08:45;;;;;;;31.00;9.48;;;0.80;99.90;;;;;;4871437;29;20406;-78
2023/12/10 02:11:14;;;;;;;31.50;9.32;;;0.80;99.90;;;;;;4871552;29;20084;-77
2023/12/10 02:13:44;;;;;;;30.52;9.43;;;0.90;99.90;;;;;;4872170;29;20089;-78
2023/12/10 02:16:13;;;;;;;24.65;6.22;;;0.80;99.90;;;;;;4869870;29;20053;-78
2023/12/10 02:18:41;;;;;;;33.17;9.98;;;0.70;99.90;;;;;;4868872;29;20825;-77
2023/12/10 02:21:10;;;;;;;42.85;11.43;;;0.70;99.90;;;;;;4871519;29;20059;-78
2023/12/10 02:23:47;;;;;;;33.00;11.38;;;0.80;99.90;;;;;;4854167;29;20194;-77
2023/12/10 02:26:17;;;;;;;33.90;10.57;;;0.80;99.90;;;;;;4872131;29;20053;-78
2023/12/10 02:28:46;;;;;;;34.08;11.10;;;0.80;99.90;;;;;;4872255;29;20056;-78
2023/12/10 02:31:15;;;;;;;36.33;11.45;;;0.80;99.90;;;;;;4877642;29;20043;-77
2023/12/10 02:33:43;;;;;;;35.85;11.13;;;0.70;99.90;;;;;;4873552;29;20048;-78
2023/12/10 02:36:12;;;;;;;36.25;11.68;;;0.70;99.90;;;;;;4871939;29;20060;-80
2023/12/10 02:38:41;;;;;;;36.90;11.38;;;0.80;99.90;;;;;;4869791;29;20119;-78
2023/12/10 02:41:10;;;;;;;37.92;11.13;;;0.70;99.90;;;;;;4886400;29;20051;-78
2023/12/10 02:43:40;;;;;;;33.83;10.55;;;0.80;99.90;;;;;;4885352;29;20056;-80
2023/12/10 02:46:09;;;;;;;35.53;10.90;;;0.80;99.90;;;;;;4860549;29;20037;-78
2023/12/10 02:48:38;;;;;;;37.70;10.95;;;0.80;99.90;;;;;;4868659;29;20159;-79
2023/12/10 02:51:07;;;;;;;28.48;8.52;;;0.70;99.90;;;;;;4884713;29;20052;-79
2023/12/10 02:53:36;;;;;;;43.10;12.40;;;0.70;99.90;;;;;;4884565;29;20088;-78
2023/12/10 02:56:07;;;;;;;42.88;11.90;;;0.80;99.90;;;;;;4884943;29;20033;-78
2023/12/10 02:58:36;;;;;;;34.22;10.15;;;-0.10;99.90;;;;;;4894137;29;20092;-79
2023/12/10 03:01:06;;;;;;;30.75;8.32;;;0.00;99.90;;;;;;4869455;29;20063;-78
2023/12/10 03:03:36;;;;;;;37.03;11.35;;;0.80;99.90;;;;;;4868146;29;20158;-79
2023/12/10 03:06:06;;;;;;;34.15;8.73;;;1.00;99.90;;;;;;4885688;29;20061;-78
2023/12/10 03:08:35;;;;;;;42.75;10.60;;;0.70;99.90;;;;;;4892884;29;20051;-79
2023/12/10 03:11:04;;;;;;;17.60;6.43;;;0.70;99.90;;;;;;4912092;29;20044;-85
2023/12/10 03:13:33;;;;;;;42.40;11.65;;;0.70;99.90;;;;;;4886532;29;20040;-78
2023/12/10 03:16:02;;;;;;;38.28;11.50;;;0.80;99.90;;;;;;4884821;29;20048;-78
2023/12/10 03:18:33;;;;;;;35.05;10.90;;;0.90;99.90;;;;;;4859745;29;20047;-81
2023/12/10 03:21:03;;;;;;;37.97;10.73;;;0.90;99.90;;;;;;4896867;29;20075;-80
2023/12/10 03:23:32;;;;;;;18.58;6.75;;;0.70;99.90;;;;;;4868739;29;20059;-79
2023/12/10 03:26:01;;;;;;;39.95;11.45;;;0.80;99.90;;;;;;4882844;29;20037;-78
2023/12/10 03:28:30;;;;;;;36.63;12.10;;;0.80;99.90;;;;;;4884659;29;20056;-79
2023/12/10 03:31:00;;;;;;;42.70;10.73;;;0.60;99.90;;;;;;4868261;29;20044;-79
2023/12/10 03:33:31;;;;;;;36.70;9.27;;;-0.30;99.90;;;;;;4884653;29;20065;-79
2023/12/10 03:36:02;;;;;;;26.98;8.68;;;1.40;99.90;;;;;;4894140;29;20032;-79
2023/12/10 03:38:31;;;;;;;32.88;11.13;;;0.80;99.90;;;;;;4864925;29;20045;-80
2023/12/10 03:41:01;;;;;;;34.95;11.05;;;0.70;99.90;;;;;;4878312;29;20028;-79
2023/12/10 03:43:30;;;;;;;32.90;9.68;;;0.80;99.90;;;;;;4882337;29;20045;-79
2023/12/10 03:45:59;;;;;;;42.28;11.80;;;1.00;99.90;;;;;;4881558;29;20076;-78
2023/12/10 03:48:27;;;;;;;38.83;11.82;;;0.80;99.90;;;;;;4862745;29;20083;-77
2023/12/10 03:50:56;;;;;;;40.65;11.15;;;0.80;99.90;;;;;;4851408;29;20064;-76
2023/12/10 03:53:26;;;;;;;40.67;11.38;;;0.80;99.90;;;;;;4845835;29;20053;-76
2023/12/10 03:55:54;;;;;;;39.10;12.75;;;0.90;99.90;;;;;;4888437;29;20052;-76
2023/12/10 03:58:23;;;;;;;39.67;11.73;;;0.90;99.90;;;;;;4873296;29;20056;-77
2023/12/10 04:00:51;;;;;;;41.75;11.90;;;0.90;99.90;;;;;;4855557;29;20124;-76
2023/12/10 04:03:20;;;;;;;42.85;12.10;;;0.90;99.90;;;;;;4865616;29;20143;-77
2023/12/10 04:05:48;;;;;;;39.40;12.13;;;0.90;99.90;;;;;;4866358;29;20076;-76
2023/12/10 04:08:17;;;;;;;39.80;10.27;;;0.80;99.90;;;;;;4850512;29;20831;-76
2023/12/10 04:10:47;;;;;;;42.85;13.95;;;0.90;99.90;;;;;;4868866;29;20171;-76
2023/12/10 04:13:15;;;;;;;40.83;11.85;;;0.80;99.90;;;;;;4849143;29;20056;-76
2023/12/10 04:15:45;;;;;;;39.53;11.30;;;0.90;99.90;;;;;;4867480;29;20832;-76
2023/12/10 04:18:14;;;;;;;43.08;11.65;;;0.80;99.90;;;;;;4864151;29;20063;-76
2023/12/10 04:20:43;;;;;;;37.97;11.88;;;0.90;99.90;;;;;;4864159;29;20060;-77
2023/12/10 04:23:11;;;;;;;44.22;12.30;;;0.90;99.90;;;;;;4865853;29;20059;-76
2023/12/10 04:25:40;;;;;;;47.53;13.10;;;0.90;99.90;;;;;;4864282;29;20053;-77
2023/12/10 04:28:10;;;;;;;43.38;13.27;;;0.90;99.90;;;;;;4864703;29;22800;-77
2023/12/10 04:30:38;;;;;;;34.78;9.65;;;0.90;99.90;;;;;;4877142;29;20116;-76
2023/12/10 04:33:06;;;;;;;41.00;12.27;;;0.90;99.90;;;;;;4866162;29;20504;-77
2023/12/10 04:35:35;;;;;;;42.90;12.80;;;0.80;99.90;;;;;;4865830;29;20060;-80
2023/12/10 04:38:03;;;;;;;40.45;11.95;;;0.90;99.90;;;;;;4850660;29;22333;-77
2023/12/10 04:40:32;;;;;;;40.70;13.40;;;0.90;99.90;;;;;;4865978;29;20057;-77
2023/12/10 04:43:00;;;;;;;39.97;12.38;;;0.80;99.90;;;;;;4876170;29;20517;-77
2023/12/10 04:45:30;;;;;;;44.95;12.52;;;0.90;99.90;;;;;;4864935;29;20057;-76
2023/12/10 04:47:59;;;;;;;41.40;11.32;;;0.90;99.90;;;;;;4873686;29;20109;-77
2023/12/10 04:50:27;;;;;;;39.25;12.55;;;0.80;99.90;;;;;;4866368;29;20048;-76
2023/12/10 04:52:56;;;;;;;45.03;13.02;;;0.80;99.90;;;;;;4863549;29;20060;-75
2023/12/10 04:55:27;;;;;;;42.20;12.57;;;0.80;99.90;;;;;;4848332;29;20091;-77
2023/12/10 04:57:55;;;;;;;37.95;10.50;;;0.80;99.90;;;;;;4867442;29;20072;-78
2023/12/10 05:00:24;;;;;;;39.05;12.23;;;0.80;99.90;;;;;;4873965;29;20060;-77
2023/12/10 05:02:54;;;;;;;45.00;11.88;;;0.80;99.90;;;;;;4870144;29;20141;-78
2023/12/10 05:05:22;;;;;;;49.88;13.10;;;0.80;99.90;;;;;;4862064;29;20056;-77
2023/12/10 05:07:51;;;;;;;44.83;13.95;;;0.80;99.90;;;;;;4881531;29;21062;-77
2023/12/10 05:10:19;;;;;;;51.45;14.10;;;0.80;99.90;;;;;;4860933;29;20060;-77
2023/12/10 05:12:48;;;;;;;50.28;13.40;;;0.80;99.90;;;;;;4870109;29;20506;-76
2023/12/10 05:15:16;;;;;;;56.38;15.48;;;0.80;99.90;;;;;;4869902;29;20052;-76
2023/12/10 05:17:45;;;;;;;47.30;16.10;;;0.70;99.90;;;;;;4854186;29;20072;-76
2023/12/10 05:20:15;;;;;;;48.58;14.18;;;0.80;99.90;;;;;;4850960;29;20060;-76
2023/12/10 05:22:43;;;;;;;45.88;13.70;;;0.80;99.90;;;;;;4868197;29;20064;-76
2023/12/10 05:25:12;;;;;;;49.38;13.80;;;0.80;99.90;;;;;;4852792;29;20142;-77
2023/12/10 05:27:40;;;;;;;36.30;11.48;;;0.80;99.90;;;;;;4852217;29;20124;-76
2023/12/10 05:30:09;;;;;;;43.30;12.75;;;0.80;99.90;;;;;;4852249;29;20063;-75
2023/12/10 05:32:38;;;;;;;49.38;14.32;;;0.80;99.90;;;;;;4863290;29;20043;-76
2023/12/10 05:35:07;;;;;;;40.58;12.10;;;0.80;99.90;;;;;;4877492;29;20124;-76
2023/12/10 05:37:37;;;;;;;53.97;13.73;;;0.80;99.90;;;;;;4877203;29;20075;-76
2023/12/10 05:40:06;;;;;;;47.88;12.27;;;0.80;99.90;;;;;;4849141;29;20060;-76
2023/12/10 05:42:34;;;;;;;47.08;15.43;;;0.80;99.90;;;;;;4877814;29;20177;-76
2023/12/10 05:45:04;;;;;;;39.22;11.82;;;0.80;99.90;;;;;;4805404;29;1262754;-76
2023/12/10 05:47:32;;;;;;;45.20;13.73;;;0.80;99.90;;;;;;4863311;29;20700;-76
2023/12/10 05:50:01;;;;;;;46.80;12.48;;;0.80;99.90;;;;;;4871932;29;20059;-76
2023/12/10 05:52:29;;;;;;;37.80;12.25;;;0.80;99.90;;;;;;4847935;29;20182;-76
2023/12/10 05:54:59;;;;;;;42.08;12.93;;;0.80;99.90;;;;;;4844652;29;20657;-76
2023/12/10 05:57:28;;;;;;;47.92;13.45;;;0.80;99.90;;;;;;4866322;29;20059;-76
2023/12/10 05:59:57;;;;;;;50.78;14.32;;;0.80;99.90;;;;;;4862618;29;20816;-76
2023/12/10 06:02:26;;;;;;;41.90;12.35;;;0.80;99.90;;;;;;4876271;29;20910;-76
2023/12/10 06:04:54;;;;;;;43.25;12.68;;;0.70;99.90;;;;;;4867559;29;20151;-76
2023/12/10 06:07:23;;;;;;;47.70;14.48;;;0.70;99.90;;;;;;4865797;29;22629;-77
2023/12/10 06:09:51;;;;;;;41.25;12.95;;;0.70;99.90;;;;;;4852976;29;20484;-77
2023/12/10 06:12:21;;;;;;;43.53;12.30;;;0.70;99.90;;;;;;4865784;29;20045;-77
2023/12/10 06:14:50;;;;;;;39.40;12.63;;;0.80;99.90;;;;;;4884878;29;20093;-77
2023/12/10 06:17:18;;;;;;;40.40;12.27;;;0.80;99.90;;;;;;4867146;29;20052;-77
2023/12/10 06:19:46;;;;;;;38.58;11.73;;;0.80;99.90;;;;;;4851412;29;20065;-77
2023/12/10 06:22:15;;;;;;;38.83;11.82;;;0.70;99.90;;;;;;4866241;29;20056;-77
2023/12/10 06:24:43;;;;;;;53.00;13.88;;;0.80;99.90;;;;;;4864562;29;20057;-77
2023/12/10 06:27:12;;;;;;;43.38;13.35;;;0.70;99.90;;;;;;4851752;29;20060;-77
2023/12/10 06:29:42;;;;;;;47.85;15.20;;;0.80;99.90;;;;;;4867327;29;20056;-77
2023/12/10 06:32:10;;;;;;;56.58;14.95;;;0.80;99.90;;;;;;4851937;29;20060;-77
2023/12/10 06:34:39;;;;;;;53.50;15.82;;;0.80;99.90;;;;;;4873452;29;20060;-77
2023/12/10 06:37:07;;;;;;;48.90;17.63;;;0.80;99.90;;;;;;4875794;29;20061;-78
2023/12/10 06:39:36;;;;;;;47.65;16.70;;;0.80;99.90;;;;;;4868288;29;20100;-78
2023/12/10 06:42:05;;;;;;;47.75;15.13;;;0.80;99.90;;;;;;4867490;29;22701;-77
2023/12/10 06:44:35;;;;;;;41.47;11.93;;;0.80;99.90;;;;;;4866134;29;20063;-78
2023/12/10 06:47:05;;;;;;;40.22;11.88;;;0.80;99.90;;;;;;4869666;29;20052;-78
2023/12/10 06:49:34;;;;;;;35.47;11.93;;;0.80;99.90;;;;;;4859878;29;20096;-78
2023/12/10 06:52:03;;;;;;;38.78;11.45;;;0.80;99.90;;;;;;4880948;29;20067;-79
2023/12/10 06:54:33;;;;;;;39.55;11.40;;;1.00;99.90;;;;;;4887645;29;20037;-80
2023/12/10 06:57:06;;;;;;;36.42;11.65;;;0.80;99.90;;;;;;4912881;29;20097;-80
2023/12/10 07:04:53;;;;;;;44.95;14.70;;;0.80;99.90;;;;;;4866122;29;20040;-81
2023/12/10 07:15:51;;;;;;;38.45;12.80;;;0.00;99.90;;;;;;4732642;30;20069;-78
2023/12/10 07:18:21;;;;;;;37.38;13.32;;;0.70;99.90;;;;;;4721527;30;20220;-81
2023/12/10 07:20:50;;;;;;;38.00;13.27;;;0.80;99.90;;;;;;4686974;30;20057;-80
2023/12/10 07:23:19;;;;;;;38.90;12.05;;;0.90;99.90;;;;;;4699750;30;20061;-80
2023/12/10 07:25:48;;;;;;;36.35;11.10;;;0.70;99.90;;;;;;4686726;30;22142;-80
2023/12/10 07:28:17;;;;;;;33.40;11.75;;;0.70;99.90;;;;;;4704623;30;20092;-79
2023/12/10 07:30:46;;;;;;;36.72;11.13;;;0.70;99.90;;;;;;4705064;30;20049;-79
2023/12/10 07:33:17;;;;;;;26.05;10.13;;;1.10;99.90;;;;;;4693326;30;20057;-80
2023/12/10 07:35:46;;;;;;;28.42;9.70;;;1.00;99.90;;;;;;4671127;30;20057;-79
2023/12/10 07:38:15;;;;;;;34.17;10.30;;;0.80;99.90;;;;;;4697561;30;20298;-80
2023/12/10 07:40:44;;;;;;;34.80;9.13;;;0.80;99.90;;;;;;4683343;30;20053;-80
2023/12/10 07:43:13;;;;;;;33.78;11.93;;;1.00;99.90;;;;;;4669892;30;20180;-80
2023/12/10 07:45:44;;;;;;;41.08;11.52;;;0.30;99.90;;;;;;4699743;30;22233;-80
2023/12/10 07:48:13;;;;;;;32.55;10.43;;;1.20;99.90;;;;;;4753541;30;20099;-84
2023/12/10 07:50:44;;;;;;;32.40;10.25;;;1.00;99.90;;;;;;4776352;29;20050;-81
2023/12/10 07:53:13;;;;;;;35.47;11.10;;;0.70;99.90;;;;;;4799175;29;20034;-82
2023/12/10 10:20:44;;;;;;;50.50;18.90;;;2.00;99.90;;;;;;4993452;23;20795;-82
2023/12/10 10:23:15;;;;;;;50.05;20.08;;;2.10;99.90;;;;;;4906696;29;20497;-80
2023/12/10 10:25:44;;;;;;;43.70;17.77;;;2.30;99.90;;;;;;4872337;29;20068;-79
2023/12/10 10:28:13;;;;;;;51.05;19.13;;;2.30;99.90;;;;;;4873312;29;20369;-78
2023/12/10 10:30:42;;;;;;;47.40;17.10;;;2.30;99.90;;;;;;4871743;29;20052;-77
2023/12/10 10:33:12;;;;;;;50.95;18.20;;;2.40;99.90;;;;;;4880790;29;20043;-78
2023/12/10 10:35:40;;;;;;;68.63;22.70;;;2.30;99.90;;;;;;4874372;29;20855;-78
2023/12/10 10:38:09;;;;;;;73.05;21.75;;;2.20;99.90;;;;;;4875495;29;20051;-79
2023/12/10 10:40:39;;;;;;;69.68;21.33;;;2.40;99.90;;;;;;4872526;29;20824;-78
2023/12/10 10:43:08;;;;;;;60.75;19.80;;;2.30;99.90;;;;;;4878098;29;20061;-79
2023/12/10 10:45:36;;;;;;;62.28;19.65;;;2.40;99.90;;;;;;4868483;29;20106;-80
2023/12/10 10:48:06;;;;;;;48.10;16.83;;;2.20;99.90;;;;;;4888833;29;20064;-80
2023/12/10 12:53:32;;;;;;;64.90;22.20;;;1.90;99.90;;;;;;4793750;29;20069;-80
2023/12/10 12:56:21;;;;;;;73.88;26.35;;;1.90;99.90;;;;;;4785056;29;22404;-80
2023/12/10 12:58:52;;;;;;;58.65;22.33;;;1.90;99.90;;;;;;4789823;29;20055;-80
2023/12/10 13:01:21;;;;;;;62.10;21.92;;;1.50;99.90;;;;;;4782214;29;20549;-80
2023/12/10 13:03:52;;;;;;;66.80;22.00;;;1.90;99.90;;;;;;4780056;29;20043;-80
2023/12/10 13:06:24;;;;;;;52.78;20.15;;;1.90;99.90;;;;;;4763495;29;20036;-79
2023/12/10 13:08:56;;;;;;;60.25;19.60;;;1.90;99.90;;;;;;4762546;29;20043;-81
2023/12/10 13:11:41;;;;;;;61.85;21.73;;;2.30;99.90;;;;;;4893203;23;20032;-81
2023/12/10 13:14:19;;;;;;;58.15;21.50;;;1.90;99.90;;;;;;4886838;29;20041;-80
2023/12/10 13:17:07;;;;;;;68.00;23.75;;;2.50;99.90;;;;;;4890044;29;20052;-80
2023/12/10 13:19:40;;;;;;;54.70;21.77;;;2.10;99.90;;;;;;4901801;29;21870;-79
2023/12/10 13:22:11;;;;;;;63.55;22.27;;;1.60;99.90;;;;;;4881440;29;20029;-80
2023/12/10 13:24:45;;;;;;;60.97;22.33;;;1.10;99.90;;;;;;4886889;29;20033;-80
2023/12/10 13:27:47;;;;;;;56.90;21.52;;;1.80;99.90;;;;;;4901926;29;20125;-80
2023/12/10 13:30:17;;;;;;;57.30;19.83;;;2.10;99.90;;;;;;4897976;29;20056;-81
2023/12/10 13:32:46;;;;;;;59.20;21.95;;;1.70;99.90;;;;;;4893842;29;20075;-81
2023/12/10 13:35:16;;;;;;;60.45;21.92;;;1.80;99.90;;;;;;4885288;29;20041;-78
2023/12/10 13:37:45;;;;;;;54.53;21.25;;;1.90;99.90;;;;;;4861341;29;20105;-79
2023/12/10 13:40:15;;;;;;;59.50;20.05;;;1.90;99.90;;;;;;4871556;29;20049;-78
2023/12/10 13:42:44;;;;;;;61.30;22.35;;;2.20;99.90;;;;;;4864611;29;20040;-78
2023/12/10 13:45:13;;;;;;;59.13;19.95;;;1.80;99.90;;;;;;4868037;29;20033;-79
2023/12/10 13:47:43;;;;;;;69.68;23.60;;;1.80;99.90;;;;;;4881489;29;20133;-78
2023/12/10 13:50:12;;;;;;;59.90;21.73;;;1.90;99.90;;;;;;4865202;29;20141;-79
2023/12/10 13:52:43;;;;;;;63.42;23.13;;;1.90;99.90;;;;;;4865349;29;20057;-78
2023/12/10 13:55:13;;;;;;;96.32;36.78;;;1.90;99.90;;;;;;4831827;29;20061;-78
2023/12/10 13:57:43;;;;;;;98.90;38.13;;;2.30;99.90;;;;;;4865131;29;20057;-78
2023/12/10 14:00:13;;;;;;;88.82;32.38;;;1.90;99.90;;;;;;4866629;29;20056;-78
2023/12/10 14:02:43;;;;;;;73.65;27.80;;;1.90;99.90;;;;;;4878599;29;20105;-79
2023/12/10 14:05:15;;;;;;;68.53;27.70;;;1.90;99.90;;;;;;4865141;29;20081;-78
2023/12/10 14:07:46;;;;;;;68.93;26.13;;;1.80;99.90;;;;;;4864601;29;20067;-78
2023/12/10 14:10:16;;;;;;;69.95;27.77;;;1.80;99.90;;;;;;4876558;29;20060;-79
2023/12/10 14:12:46;;;;;;;71.80;27.20;;;1.90;99.90;;;;;;4849052;29;20080;-79
2023/12/10 14:15:16;;;;;;;84.63;29.67;;;1.80;99.90;;;;;;4848988;29;20049;-79
2023/12/10 14:17:45;;;;;;;73.53;28.52;;;0.70;99.90;;;;;;4844727;29;20072;-77
2023/12/10 14:20:14;;;;;;;84.07;30.60;;;1.70;99.90;;;;;;4870675;29;20069;-77
2023/12/10 14:22:45;;;;;;;78.80;30.77;;;1.80;99.90;;;;;;4858013;29;20044;-77
2023/12/10 14:25:14;;;;;;;70.05;27.05;;;1.80;99.90;;;;;;4857453;29;20770;-77
2023/12/10 14:27:43;;;;;;;64.78;25.02;;;1.80;99.90;;;;;;4849591;29;20052;-77
2023/12/10 14:30:14;;;;;;;87.57;29.92;;;1.80;99.90;;;;;;4861287;29;20049;-77
2023/12/10 14:32:43;;;;;;;67.88;27.52;;;1.80;99.90;;;;;;4865256;29;20166;-77
2023/12/10 14:35:12;;;;;;;118.43;47.80;;;1.80;99.90;;;;;;4855029;29;20049;-77
2023/12/10 14:37:40;;;;;;;88.70;34.47;;;1.80;99.90;;;;;;4836675;29;20086;-77
2023/12/10 14:40:10;;;;;;;69.95;28.27;;;1.80;99.90;;;;;;4848310;29;20069;-77
2023/12/10 14:42:39;;;;;;;62.47;25.73;;;1.70;99.90;;;;;;4830350;29;20465;-76
2023/12/10 14:45:10;;;;;;;67.57;26.25;;;1.70;99.90;;;;;;4846888;29;20053;-77
2023/12/10 14:47:40;;;;;;;67.57;26.88;;;1.70;99.90;;;;;;4833540;29;20065;-77
2023/12/10 14:50:09;;;;;;;73.75;28.92;;;1.70;99.90;;;;;;4851264;29;20061;-76
2023/12/10 14:52:38;;;;;;;62.65;27.67;;;1.70;99.90;;;;;;4848038;29;20091;-77
2023/12/10 14:55:09;;;;;;;67.18;26.73;;;1.70;99.90;;;;;;4857192;29;20140;-77
2023/12/10 14:57:39;;;;;;;61.47;24.83;;;1.60;99.90;;;;;;4847284;29;20282;-77
2023/12/10 15:00:11;;;;;;;64.95;27.75;;;1.60;99.90;;;;;;4834988;29;20060;-77
2023/12/10 15:02:42;;;;;;;72.53;28.63;;;1.60;99.90;;;;;;4833127;29;20049;-77
2023/12/10 15:05:11;;;;;;;71.53;27.45;;;1.60;99.90;;;;;;4841354;29;20049;-77
2023/12/10 15:07:42;;;;;;;65.95;26.90;;;1.60;99.90;;;;;;4856464;29;20120;-76
2023/12/10 15:10:11;;;;;;;64.78;26.90;;;1.60;99.90;;;;;;4834204;29;20053;-76
2023/12/10 15:12:40;;;;;;;64.32;28.08;;;1.60;99.90;;;;;;4844505;29;20061;-77
2023/12/10 15:15:10;;;;;;;71.95;29.33;;;1.60;99.90;;;;;;4848084;29;20417;-77
2023/12/10 15:17:39;;;;;;;73.15;28.95;;;1.60;99.90;;;;;;4848728;29;20045;-77
2023/12/10 15:20:13;;;;;;;77.05;31.65;;;1.50;99.90;;;;;;4848404;29;20053;-77
2023/12/10 15:22:41;;;;;;;69.95;29.50;;;1.50;99.90;;;;;;4837206;29;20971;-77
2023/12/10 15:25:10;;;;;;;70.65;27.20;;;1.60;99.90;;;;;;4835527;29;20064;-76
2023/12/10 15:27:40;;;;;;;76.35;28.88;;;1.50;99.90;;;;;;4852608;29;20068;-80
2023/12/10 15:30:10;;;;;;;71.53;26.73;;;1.50;99.90;;;;;;4836867;29;20068;-77
2023/12/10 15:32:38;;;;;;;76.45;27.17;;;1.50;99.90;;;;;;4850998;29;20128;-77
2023/12/10 15:35:07;;;;;;;77.72;26.60;;;1.50;99.90;;;;;;4848728;29;20041;-77
2023/12/10 15:37:37;;;;;;;72.72;27.20;;;1.40;99.90;;;;;;4858791;29;20052;-77
2023/12/10 15:40:07;;;;;;;74.10;27.05;;;1.40;99.90;;;;;;4858121;29;20698;-77
2023/12/10 15:42:36;;;;;;;69.80;26.23;;;1.40;99.90;;;;;;4852657;29;20057;-77
2023/12/10 15:45:05;;;;;;;67.63;26.02;;;1.40;99.90;;;;;;4854258;29;20061;-77
2023/12/10 15:47:33;;;;;;;72.13;25.85;;;1.30;99.90;;;;;;4834314;29;22588;-77
2023/12/10 15:50:02;;;;;;;75.75;28.30;;;1.30;99.90;;;;;;4850032;29;20056;-76
2023/12/10 15:52:31;;;;;;;72.97;31.55;;;1.30;99.90;;;;;;4832070;29;20056;-77
2023/12/10 15:55:10;;;;;;;66.10;29.50;;;1.30;99.90;;;;;;4849201;29;20086;-77
2023/12/10 15:57:39;;;;;;;69.03;29.40;;;1.30;99.90;;;;;;4846786;29;20065;-77
2023/12/10 16:00:11;;;;;;;65.50;30.73;;;1.30;99.90;;;;;;4834803;29;20184;-77
2023/12/10 16:02:39;;;;;;;62.10;29.77;;;1.30;99.90;;;;;;4858643;29;20049;-77
2023/12/10 16:05:08;;;;;;;70.80;29.27;;;1.20;99.90;;;;;;4847032;29;20140;-77
2023/12/10 16:07:37;;;;;;;64.75;28.75;;;1.20;99.90;;;;;;4830831;29;20173;-77
2023/12/10 16:10:20;;;;;;;63.60;27.67;;;1.20;99.90;;;;;;4848152;29;20092;-76
2023/12/10 16:12:49;;;;;;;63.83;27.15;;;1.20;99.90;;;;;;4850290;29;20067;-76
2023/12/10 16:15:17;;;;;;;57.80;25.35;;;1.20;99.90;;;;;;4840907;29;21043;-76
2023/12/10 16:17:46;;;;;;;57.85;24.90;;;1.20;99.90;;;;;;4842831;29;20068;-76
2023/12/10 16:20:15;;;;;;;54.13;24.08;;;1.20;99.90;;;;;;4842876;29;20196;-76
2023/12/10 16:22:46;;;;;;;64.20;25.35;;;1.20;99.90;;;;;;4861355;29;20195;-76
2023/12/10 16:25:16;;;;;;;59.70;24.92;;;1.10;99.90;;;;;;4846038;29;20108;-76
2023/12/10 16:27:48;;;;;;;57.53;23.20;;;1.20;99.90;;;;;;4827773;29;20080;-75
2023/12/10 16:30:17;;;;;;;53.55;22.13;;;1.10;99.90;;;;;;4826788;29;20048;-75
2023/12/10 16:32:46;;;;;;;58.53;21.00;;;1.10;99.90;;;;;;4840253;29;20057;-75
2023/12/10 16:35:15;;;;;;;54.53;20.98;;;1.10;99.90;;;;;;4843488;29;20148;-75
2023/12/10 16:37:44;;;;;;;54.42;21.17;;;1.10;99.90;;;;;;4857688;29;20053;-76
2023/12/10 16:40:14;;;;;;;60.83;23.05;;;1.10;99.90;;;;;;4839893;29;20121;-75
2023/12/10 16:42:43;;;;;;;59.92;22.55;;;1.10;99.90;;;;;;4843631;29;20072;-75
2023/12/10 16:45:13;;;;;;;56.35;22.98;;;1.10;99.90;;;;;;4851902;29;20049;-75
2023/12/10 16:47:42;;;;;;;55.33;22.17;;;1.10;99.90;;;;;;4842849;29;20060;-75
2023/12/10 16:50:11;;;;;;;63.42;25.27;;;1.00;99.90;;;;;;4840976;29;20063;-75
2023/12/10 16:52:40;;;;;;;67.97;26.40;;;1.00;99.90;;;;;;4840636;29;22471;-75
2023/12/10 16:55:11;;;;;;;55.70;21.98;;;1.00;99.90;;;;;;4840420;29;20092;-75
2023/12/10 16:57:41;;;;;;;65.40;25.20;;;1.00;99.90;;;;;;4828672;29;21032;-75
2023/12/10 17:00:12;;;;;;;67.75;23.42;;;1.00;99.90;;;;;;4847631;29;20152;-75
2023/12/10 17:02:42;;;;;;;63.28;24.05;;;0.90;99.90;;;;;;4846702;29;20499;-75
2023/12/10 17:05:12;;;;;;;64.03;23.92;;;0.90;99.90;;;;;;4825544;29;20057;-75
2023/12/10 17:07:40;;;;;;;63.05;25.15;;;0.90;99.90;;;;;;4836324;29;20474;-75
2023/12/10 17:10:10;;;;;;;67.55;26.27;;;0.90;99.90;;;;;;4846686;29;20128;-74
2023/12/10 17:12:39;;;;;;;68.40;25.95;;;0.90;99.90;;;;;;4845201;29;20061;-74
2023/12/10 17:15:09;;;;;;;80.53;27.58;;;0.80;99.90;;;;;;4844326;29;20060;-74
2023/12/10 17:17:39;;;;;;;84.10;30.38;;;0.80;99.90;;;;;;4841476;29;20063;-74
2023/12/10 17:20:08;;;;;;;82.72;30.58;;;0.80;99.90;;;;;;4846917;29;20116;-74
2023/12/10 17:22:37;;;;;;;80.10;27.38;;;0.80;99.90;;;;;;4857174;29;20045;-74
2023/12/10 17:25:05;;;;;;;87.68;28.70;;;0.70;99.90;;;;;;4843007;29;20053;-75
2023/12/10 17:27:34;;;;;;;92.55;30.38;;;0.70;99.90;;;;;;4840100;29;20045;-74
2023/12/10 17:30:04;;;;;;;76.47;26.15;;;0.70;99.90;;;;;;4841637;29;20055;-75
2023/12/10 17:32:33;;;;;;;69.05;25.15;;;0.70;99.90;;;;;;4841836;29;20060;-75